Time;durP1;ratioP1;P1;durP2;ratioP2;P2;SDS_P1;SDS_P2;PMS_P1;PMS_P2;Temp;Humidity;BMP_temperature;BMP_pressure;BME280_temperature;BME280_humidity;BME280_pressure;Samples;Min_cycle;Max_cycle;Signal;HPM_P1;HPM_P2
2023/06/01 00:02:09;;;;;;;17.55;6.07;;;;;;;16.09;100.00;100543.25;5586166;31;33543;-68
2023/06/01 00:05:13;;;;;;;10.15;5.80;;;;;;;16.33;100.00;100547.25;5586248;31;33834;-67
2023/06/01 00:08:16;;;;;;;12.32;5.95;;;;;;;16.44;100.00;100539.47;5586186;31;34422;-67
2023/06/01 00:11:20;;;;;;;13.20;5.85;;;;;;;16.48;100.00;100545.25;5586009;31;33837;-67
2023/06/01 00:14:24;;;;;;;13.98;5.75;;;;;;;16.37;100.00;100541.28;5586048;31;34715;-68
2023/06/01 00:17:28;;;;;;;8.23;5.75;;;;;;;16.15;100.00;100537.09;5585994;31;33677;-68
2023/06/01 00:20:32;;;;;;;11.70;5.47;;;;;;;16.02;100.00;100532.50;5586038;31;34569;-67
2023/06/01 00:23:36;;;;;;;11.55;5.85;;;;;;;15.87;100.00;100533.69;5587257;31;33996;-67
2023/06/01 00:26:39;;;;;;;10.45;5.60;;;;;;;15.83;100.00;100533.25;5588446;31;34220;-68
2023/06/01 00:29:42;;;;;;;15.35;5.40;;;;;;;15.81;100.00;100534.47;5587518;31;33460;-67
2023/06/01 00:32:46;;;;;;;9.82;5.82;;;;;;;15.67;100.00;100530.91;5587584;31;34334;-67
2023/06/01 00:35:49;;;;;;;10.93;5.75;;;;;;;15.65;100.00;100539.13;5588406;31;33869;-68
2023/06/01 00:39:01;;;;;;;9.15;5.30;;;;;;;15.60;100.00;100540.72;5588218;31;34338;-67
2023/06/01 00:42:06;;;;;;;9.48;5.15;;;;;;;15.78;100.00;100541.03;5588383;31;33537;-67
2023/06/01 00:45:09;;;;;;;13.82;5.50;;;;;;;15.74;100.00;100536.28;5588071;31;33779;-68
2023/06/01 00:48:14;;;;;;;10.13;4.97;;;;;;;15.89;100.00;100543.16;5588333;31;33773;-67
2023/06/01 00:51:18;;;;;;;11.70;6.00;;;;;;;15.85;100.00;100536.56;5588061;31;33598;-67
2023/06/01 00:54:22;;;;;;;12.60;5.57;;;;;;;15.75;100.00;100529.91;5588101;31;33809;-67
2023/06/01 00:57:26;;;;;;;9.80;6.07;;;;;;;15.69;100.00;100530.69;5587562;31;34220;-68
2023/06/01 01:00:31;;;;;;;16.35;6.30;;;;;;;15.71;100.00;100525.97;5588090;31;33671;-68
2023/06/01 01:03:38;;;;;;;13.45;5.68;;;;;;;15.74;100.00;100529.09;5587205;31;33691;-68
2023/06/01 01:07:09;;;;;;;9.18;6.05;;;;;;;15.71;100.00;100526.81;5588092;31;34395;-67
2023/06/01 01:10:37;;;;;;;13.90;5.95;;;;;;;15.55;100.00;100533.28;5587919;31;33798;-68
2023/06/01 01:13:50;;;;;;;10.90;6.17;;;;;;;15.54;100.00;100526.28;5587985;31;35189;-67
2023/06/01 01:17:02;;;;;;;9.90;5.87;;;;;;;15.47;100.00;100527.25;5588311;31;33769;-68
2023/06/01 01:20:12;;;;;;;12.32;5.45;;;;;;;15.46;100.00;100529.09;5587074;31;34737;-67
2023/06/01 01:23:29;;;;;;;14.95;6.00;;;;;;;15.39;100.00;100532.75;5587600;31;33981;-68
2023/06/01 01:26:43;;;;;;;11.85;5.97;;;;;;;15.38;100.00;100529.25;5587877;31;34460;-68
2023/06/01 01:29:46;;;;;;;12.00;6.00;;;;;;;15.22;100.00;100530.38;5587053;31;33609;-67
2023/06/01 01:32:50;;;;;;;9.50;5.72;;;;;;;15.11;100.00;100525.53;5587816;31;33482;-68
2023/06/01 01:35:55;;;;;;;10.20;5.60;;;;;;;14.99;100.00;100520.94;5587249;31;33765;-67
2023/06/01 01:38:59;;;;;;;12.85;5.85;;;;;;;15.12;100.00;100523.69;5587824;31;33719;-67
2023/06/01 01:42:05;;;;;;;15.25;6.10;;;;;;;15.17;100.00;100524.78;5587668;31;33844;-68
2023/06/01 01:45:09;;;;;;;12.57;6.60;;;;;;;15.15;100.00;100526.00;5587771;31;33614;-68
2023/06/01 01:48:52;;;;;;;11.18;6.10;;;;;;;15.06;100.00;100521.78;5586923;31;34196;-68
2023/06/01 01:52:06;;;;;;;11.88;5.78;;;;;;;14.93;100.00;100529.72;5536603;31;33704;-67
2023/06/01 01:55:11;;;;;;;7.70;5.72;;;;;;;14.86;100.00;100529.66;5587670;31;34476;-67
2023/06/01 01:58:15;;;;;;;8.95;5.57;;;;;;;14.82;100.00;100527.53;5587612;31;34391;-67
2023/06/01 02:01:19;;;;;;;10.60;6.12;;;;;;;14.84;100.00;100523.69;5587594;31;33636;-67
2023/06/01 02:04:23;;;;;;;9.73;5.37;;;;;;;14.86;100.00;100524.31;5573817;31;33809;-68
2023/06/01 02:07:27;;;;;;;8.90;5.35;;;;;;;14.79;100.00;100523.44;5587439;31;34548;-67
2023/06/01 02:10:31;;;;;;;9.45;5.30;;;;;;;14.70;100.00;100519.22;5587469;31;33608;-67
2023/06/01 02:13:34;;;;;;;9.13;4.95;;;;;;;14.71;100.00;100524.41;5587471;31;34887;-68
2023/06/01 02:16:38;;;;;;;9.50;5.35;;;;;;;14.77;100.00;100510.25;5587458;31;33754;-68
2023/06/01 02:19:43;;;;;;;10.38;5.40;;;;;;;14.60;100.00;100524.06;5587430;31;33968;-68
2023/06/01 02:22:48;;;;;;;11.27;5.78;;;;;;;14.44;100.00;100511.78;5587732;31;33729;-67
2023/06/01 02:25:52;;;;;;;9.55;5.28;;;;;;;14.33;100.00;100507.72;5587333;31;34125;-67
2023/06/01 02:28:55;;;;;;;11.88;4.87;;;;;;;14.34;100.00;100505.88;5587414;31;34157;-67
2023/06/01 02:32:02;;;;;;;11.75;5.25;;;;;;;14.55;100.00;100503.28;5587306;31;34332;-67
2023/06/01 02:35:06;;;;;;;6.62;5.00;;;;;;;14.67;100.00;100503.56;5587342;31;33881;-67
2023/06/01 02:38:10;;;;;;;12.88;4.95;;;;;;;14.60;100.00;100506.19;5587062;31;33656;-67
2023/06/01 02:41:14;;;;;;;13.25;5.70;;;;;;;14.56;100.00;100507.59;5587408;31;33573;-68
2023/06/01 02:44:18;;;;;;;10.30;5.15;;;;;;;14.58;100.00;100494.03;5587173;31;34047;-67
2023/06/01 02:47:21;;;;;;;9.25;5.20;;;;;;;14.42;100.00;100484.47;5587199;31;33740;-68
2023/06/01 02:50:26;;;;;;;10.10;5.40;;;;;;;14.37;100.00;100486.88;5586183;31;34440;-68
2023/06/01 02:53:29;;;;;;;9.60;5.32;;;;;;;14.41;100.00;100489.97;5587122;31;34414;-68
2023/06/01 02:56:33;;;;;;;9.75;5.22;;;;;;;14.45;100.00;100496.59;5587151;31;33727;-67
2023/06/01 02:59:38;;;;;;;10.07;5.15;;;;;;;14.40;100.00;100493.66;5587108;31;33797;-68
2023/06/01 03:02:45;;;;;;;8.93;5.05;;;;;;;14.29;100.00;100500.28;5587136;31;35011;-68
2023/06/01 03:05:48;;;;;;;12.07;5.47;;;;;;;14.26;100.00;100503.34;5586919;31;34868;-67
2023/06/01 03:08:53;;;;;;;10.02;5.18;;;;;;;14.21;100.00;100505.75;5587079;31;33515;-67
2023/06/01 03:12:01;;;;;;;10.05;5.25;;;;;;;14.19;100.00;100513.09;5586135;31;33899;-67
2023/06/01 03:15:06;;;;;;;11.50;5.37;;;;;;;14.10;100.00;100508.91;5586931;31;34301;-68
2023/06/01 03:18:10;;;;;;;15.23;5.93;;;;;;;14.05;100.00;100501.47;5586964;31;33736;-68
2023/06/01 03:21:16;;;;;;;10.98;5.50;;;;;;;14.03;100.00;100506.16;5586814;31;33610;-68
2023/06/01 03:24:21;;;;;;;14.38;5.68;;;;;;;14.00;100.00;100503.84;5586655;31;33502;-68
2023/06/01 03:27:25;;;;;;;10.52;5.87;;;;;;;14.05;100.00;100504.13;5585820;31;33779;-68
2023/06/01 03:30:28;;;;;;;14.43;5.50;;;;;;;13.99;100.00;100496.84;5586831;31;34661;-68
2023/06/01 03:33:32;;;;;;;11.10;5.10;;;;;;;14.04;100.00;100501.66;5586669;31;33686;-68
2023/06/01 03:36:36;;;;;;;12.48;5.43;;;;;;;14.08;100.00;100503.78;5586670;31;33780;-68
2023/06/01 03:39:40;;;;;;;10.77;5.47;;;;;;;14.12;100.00;100501.53;5586594;31;33707;-68
2023/06/01 03:42:46;;;;;;;11.32;5.20;;;;;;;14.18;100.00;100490.97;5586658;31;33742;-67
2023/06/01 03:45:50;;;;;;;10.70;5.15;;;;;;;14.27;100.00;100499.66;5586514;31;33523;-68
2023/06/01 03:48:53;;;;;;;9.27;5.07;;;;;;;14.39;100.00;100490.16;5586366;31;34537;-68
2023/06/01 03:51:57;;;;;;;8.13;4.95;;;;;;;14.63;100.00;100496.97;5586291;31;34725;-67
2023/06/01 03:55:02;;;;;;;10.98;5.25;;;;;;;14.78;100.00;100495.06;5586266;31;34516;-67
2023/06/01 03:58:07;;;;;;;10.43;5.28;;;;;;;14.99;100.00;100494.22;5585742;31;35111;-67
2023/06/01 04:01:12;;;;;;;10.65;5.87;;;;;;;15.00;100.00;100491.34;5586365;31;33959;-68
2023/06/01 04:04:17;;;;;;;16.30;5.53;;;;;;;15.11;100.00;100492.66;5586376;31;34296;-67
2023/06/01 04:07:21;;;;;;;15.80;5.30;;;;;;;15.18;100.00;100501.56;5586273;31;33523;-67
2023/06/01 04:10:25;;;;;;;11.77;5.28;;;;;;;15.15;100.00;100494.75;5585778;31;33637;-68
2023/06/01 04:13:29;;;;;;;13.68;5.43;;;;;;;15.07;100.00;100502.91;5585877;31;34733;-68
2023/06/01 04:16:36;;;;;;;11.25;5.45;;;;;;;15.11;100.00;100500.66;5586122;31;33170;-67
2023/06/01 04:19:40;;;;;;;13.27;5.62;;;;;;;15.22;100.00;100500.97;5586028;31;33536;-67
2023/06/01 04:22:44;;;;;;;7.30;4.80;;;;;;;15.37;100.00;100505.37;5585929;31;33754;-67
2023/06/01 04:25:50;;;;;;;10.10;5.45;;;;;;;15.39;100.00;100501.50;5586182;31;33400;-67
2023/06/01 04:28:56;;;;;;;10.88;5.28;;;;;;;15.38;100.00;100496.34;5585736;31;34497;-67
2023/06/01 04:32:00;;;;;;;16.17;6.05;;;;;;;15.43;100.00;100499.25;5585634;31;33789;-67
2023/06/01 04:35:05;;;;;;;10.55;5.93;;;;;;;15.46;100.00;100502.34;5585817;31;33640;-67
2023/06/01 04:38:09;;;;;;;11.05;5.03;;;;;;;15.66;100.00;100507.84;5585633;31;33837;-67
2023/06/01 04:41:13;;;;;;;12.40;5.50;;;;;;;15.79;100.00;100497.22;5585624;31;33761;-67
2023/06/01 04:44:18;;;;;;;16.90;5.35;;;;;;;15.79;100.00;100507.09;5584706;31;33929;-67
2023/06/01 04:47:22;;;;;;;14.85;4.90;;;;;;;15.93;100.00;100500.78;5585378;31;33625;-67
2023/06/01 04:50:29;;;;;;;11.40;4.80;;;;;;;16.01;100.00;100497.94;5585261;31;33685;-67
2023/06/01 04:53:33;;;;;;;10.80;4.87;;;;;;;16.24;100.00;100506.47;5585420;31;33526;-68
2023/06/01 04:56:36;;;;;;;8.90;4.97;;;;;;;16.29;100.00;100506.69;5567580;31;33978;-67
2023/06/01 04:59:41;;;;;;;13.05;4.78;;;;;;;16.47;100.00;100504.25;5565378;32;34451;-67
2023/06/01 05:02:47;;;;;;;12.60;4.82;;;;;;;16.62;100.00;100505.94;5565348;32;33747;-67
2023/06/01 05:05:50;;;;;;;8.02;4.53;;;;;;;16.73;100.00;100506.19;5564092;32;33494;-67
2023/06/01 05:08:54;;;;;;;7.78;4.40;;;;;;;16.82;100.00;100504.94;5565242;32;33768;-67
2023/06/01 05:11:57;;;;;;;11.50;4.55;;;;;;;16.98;100.00;100506.41;5567008;32;33734;-67
2023/06/01 05:15:02;;;;;;;14.45;4.40;;;;;;;17.02;100.00;100506.81;5568170;32;33891;-67
2023/06/01 05:18:05;;;;;;;12.07;4.57;;;;;;;17.11;100.00;100506.41;5571868;31;31933;-68
2023/06/01 05:21:09;;;;;;;8.00;4.60;;;;;;;17.28;100.00;100507.59;5569735;31;33533;-67
2023/06/01 05:24:12;;;;;;;11.48;4.97;;;;;;;17.48;100.00;100506.75;5566876;32;33598;-67
2023/06/01 05:27:16;;;;;;;14.15;4.80;;;;;;;17.52;100.00;100519.56;5585845;31;32996;-67
2023/06/01 05:30:20;;;;;;;14.50;4.82;;;;;;;17.73;100.00;100519.31;5574919;31;33491;-68
2023/06/01 05:33:24;;;;;;;15.45;4.47;;;;;;;17.89;100.00;100519.88;5567117;32;34509;-68
2023/06/01 05:36:31;;;;;;;14.07;5.18;;;;;;;17.92;100.00;100517.59;5567893;32;33812;-68
2023/06/01 05:39:35;;;;;;;16.58;5.32;;;;;;;18.08;100.00;100510.94;5567935;32;33801;-68
2023/06/01 05:42:39;;;;;;;13.15;4.57;;;;;;;18.20;100.00;100512.72;5572724;31;34012;-68
2023/06/01 05:45:42;;;;;;;14.95;5.35;;;;;;;18.41;100.00;100500.00;5584423;31;33434;-68
2023/06/01 05:48:46;;;;;;;17.52;4.72;;;;;;;18.57;100.00;100502.22;5572995;31;34371;-68
2023/06/01 05:51:50;;;;;;;11.70;4.75;;;;;;;18.61;100.00;100498.06;5569284;31;33600;-68
2023/06/01 05:54:54;;;;;;;12.60;4.75;;;;;;;18.74;100.00;100510.56;5568262;31;33804;-68
2023/06/01 05:57:57;;;;;;;13.18;4.87;;;;;;;18.86;100.00;100512.34;5565832;31;33914;-68
2023/06/01 06:01:00;;;;;;;15.93;4.80;;;;;;;19.00;100.00;100507.69;5577542;31;34199;-68
2023/06/01 06:04:05;;;;;;;11.73;3.97;;;;;;;19.13;100.00;100512.94;5586172;31;33990;-68
2023/06/01 06:07:08;;;;;;;12.13;4.65;;;;;;;19.29;90.36;100515.09;5577224;31;34247;-68
2023/06/01 06:10:11;;;;;;;20.08;4.10;;;;;;;19.44;82.86;100509.41;5586633;31;33525;-69
2023/06/01 06:13:14;;;;;;;12.27;4.15;;;;;;;19.58;77.79;100510.91;5571416;31;34278;-68
2023/06/01 06:16:17;;;;;;;12.35;4.40;;;;;;;19.68;79.82;100516.59;5586289;31;33492;-68
2023/06/01 06:19:20;;;;;;;9.48;3.83;;;;;;;19.74;80.52;100518.41;5586396;31;33794;-67
2023/06/01 06:22:24;;;;;;;10.02;4.05;;;;;;;19.91;72.48;100516.72;5582581;31;34154;-68
2023/06/01 06:25:27;;;;;;;10.57;3.87;;;;;;;20.04;73.15;100518.47;5582077;31;33701;-68
2023/06/01 06:28:30;;;;;;;11.30;3.12;;;;;;;20.24;67.52;100516.31;5573018;31;34641;-68
2023/06/01 06:31:33;;;;;;;12.57;3.75;;;;;;;20.32;62.19;100515.22;5576325;31;33246;-68
2023/06/01 06:34:36;;;;;;;13.73;3.45;;;;;;;20.41;63.69;100513.84;5586639;31;33899;-68
2023/06/01 06:37:40;;;;;;;13.35;3.83;;;;;;;20.45;62.64;100516.91;5586388;31;33721;-68
2023/06/01 06:40:44;;;;;;;11.57;3.40;;;;;;;20.69;62.71;100503.25;5585705;31;33781;-68
2023/06/01 06:43:46;;;;;;;11.98;3.90;;;;;;;20.83;59.02;100501.19;5585635;31;33508;-68
2023/06/01 06:46:50;;;;;;;11.07;3.30;;;;;;;20.85;61.39;100500.97;5586728;31;33847;-68
2023/06/01 06:49:53;;;;;;;12.05;3.50;;;;;;;21.12;58.59;100497.59;5574548;31;33786;-68
2023/06/01 06:52:56;;;;;;;7.65;3.12;;;;;;;21.38;56.80;100503.59;5566859;32;34769;-68
2023/06/01 06:55:59;;;;;;;13.60;3.50;;;;;;;21.53;56.05;100503.94;5566383;32;33480;-68
2023/06/01 06:59:02;;;;;;;6.97;3.17;;;;;;;21.83;55.78;100501.09;5574577;31;33850;-68
2023/06/01 07:02:10;;;;;;;9.98;3.40;;;;;;;22.06;56.07;100506.47;5575326;31;34251;-68
2023/06/01 07:05:13;;;;;;;8.55;3.30;;;;;;;22.30;53.05;100493.69;5572717;31;33720;-68
2023/06/01 07:08:16;;;;;;;7.25;3.30;;;;;;;22.15;50.68;100501.50;5584752;31;34087;-68
2023/06/01 07:11:20;;;;;;;9.27;3.17;;;;;;;22.41;51.77;100492.81;5586065;31;33955;-69
2023/06/01 07:14:23;;;;;;;13.32;3.03;;;;;;;22.63;49.42;100491.03;5587192;31;33858;-68
2023/06/01 07:17:26;;;;;;;6.53;2.85;;;;;;;22.53;45.67;100504.38;5586960;31;33873;-68
2023/06/01 07:20:29;;;;;;;13.95;3.12;;;;;;;22.92;45.33;100497.22;5585633;31;33766;-68
2023/06/01 07:23:33;;;;;;;12.52;2.90;;;;;;;23.01;48.69;100494.94;5585338;31;34432;-68
2023/06/01 07:26:36;;;;;;;7.47;2.80;;;;;;;23.51;46.63;100495.72;5586433;31;34230;-68
2023/06/01 07:29:39;;;;;;;10.98;2.97;;;;;;;24.01;46.88;100500.97;5586069;31;35006;-68
2023/06/01 07:32:43;;;;;;;9.57;3.40;;;;;;;24.52;46.60;100502.38;5585161;31;34360;-68
2023/06/01 07:35:46;;;;;;;10.65;3.20;;;;;;;25.35;41.44;100497.38;5585821;31;34644;-69
2023/06/01 07:38:50;;;;;;;10.60;3.30;;;;;;;26.14;40.54;100503.47;5586075;31;33399;-68
2023/06/01 07:41:53;;;;;;;10.63;3.12;;;;;;;26.87;39.38;100489.81;5585532;31;33599;-68
2023/06/01 07:44:57;;;;;;;8.15;2.85;;;;;;;27.36;37.88;100492.72;5585056;31;34167;-68
2023/06/01 07:48:00;;;;;;;9.55;3.00;;;;;;;28.18;35.25;100494.09;5565267;32;33701;-69
2023/06/01 07:51:06;;;;;;;7.82;2.70;;;;;;;27.66;37.51;100490.78;5560666;31;210028;-69
2023/06/01 07:54:10;;;;;;;13.98;3.08;;;;;;;27.72;36.08;100486.12;5568753;31;33797;-69
2023/06/01 07:57:13;;;;;;;7.80;2.55;;;;;;;27.36;35.90;100496.28;5566115;32;33646;-69
2023/06/01 08:00:17;;;;;;;6.68;2.42;;;;;;;28.57;34.40;100480.50;5566199;32;33936;-70
2023/06/01 08:03:21;;;;;;;10.02;3.22;;;;;;;29.23;32.98;100487.06;5565392;32;33721;-70
2023/06/01 08:06:24;;;;;;;16.90;2.70;;;;;;;29.67;34.06;100481.41;5573904;31;34424;-70
2023/06/01 08:09:28;;;;;;;7.85;2.80;;;;;;;28.92;34.48;100485.72;5580472;31;34543;-70
2023/06/01 08:12:31;;;;;;;19.30;3.67;;;;;;;30.64;31.53;100489.94;5565733;32;33683;-69
2023/06/01 08:15:37;;;;;;;21.20;2.80;;;;;;;30.85;30.72;100479.47;5565808;32;33950;-68
2023/06/01 08:18:40;;;;;;;17.25;3.28;;;;;;;30.78;31.07;100478.25;5565216;32;34434;-69
2023/06/01 08:21:45;;;;;;;15.82;3.17;;;;;;;31.87;29.28;100475.69;5565454;32;34465;-69
2023/06/01 08:24:51;;;;;;;12.30;2.87;;;;;;;31.97;28.69;100474.66;5564318;32;34543;-69
2023/06/01 08:27:54;;;;;;;6.55;2.87;;;;;;;30.90;29.72;100475.84;5565129;32;34812;-68
2023/06/01 08:30:57;;;;;;;12.63;2.97;;;;;;;29.35;31.63;100465.62;5565049;32;34543;-68
2023/06/01 08:34:01;;;;;;;10.88;2.80;;;;;;;30.06;32.31;100464.81;5565483;32;34838;-68
2023/06/01 08:37:04;;;;;;;11.82;2.78;;;;;;;30.85;30.25;100464.97;5565029;32;33853;-68
2023/06/01 08:40:10;;;;;;;17.73;2.90;;;;;;;31.59;29.40;100471.34;5564731;32;34654;-69
2023/06/01 08:43:19;;;;;;;13.45;3.08;;;;;;;31.70;28.26;100470.00;5581575;31;34257;-69
2023/06/01 08:46:25;;;;;;;6.68;2.70;;;;;;;32.28;29.15;100467.41;5582313;31;33907;-71
2023/06/01 08:49:30;;;;;;;10.50;3.00;;;;;;;31.31;29.77;100471.31;5566395;32;33741;-71
2023/06/01 08:52:35;;;;;;;12.15;2.60;;;;;;;32.78;27.74;100460.69;5568001;31;33600;-70
2023/06/01 08:55:38;;;;;;;19.45;3.20;;;;;;;30.69;29.61;100461.69;5568627;31;34196;-71
2023/06/01 08:58:43;;;;;;;12.37;2.90;;;;;;;33.23;26.45;100462.59;5567351;32;33598;-71
2023/06/01 09:01:47;;;;;;;8.20;2.90;;;;;;;32.27;26.39;100466.59;5567442;32;33751;-72
2023/06/01 09:04:50;;;;;;;13.48;2.70;;;;;;;32.74;26.48;100465.19;5568859;31;33532;-70
2023/06/01 09:07:54;;;;;;;10.07;3.12;;;;;;;33.19;25.79;100449.47;5581443;31;34720;-70
2023/06/01 09:10:57;;;;;;;8.07;3.03;;;;;;;32.31;26.38;100453.03;5576870;31;32843;-70
2023/06/01 09:14:00;;;;;;;6.93;2.83;;;;;;;32.62;26.11;100448.44;5571503;31;33719;-71
2023/06/01 09:17:04;;;;;;;7.35;2.95;;;;;;;32.57;25.83;100454.06;5576640;31;33739;-70
2023/06/01 09:20:12;;;;;;;7.55;2.85;;;;;;;33.31;25.93;100445.34;5571289;31;34720;-71
2023/06/01 09:23:26;;;;;;;10.63;3.10;;;;;;;31.78;28.18;100442.66;5567742;32;34557;-72
2023/06/01 09:26:29;;;;;;;9.40;2.97;;;;;;;32.01;28.22;100434.50;5567566;32;32631;-70
2023/06/01 09:29:32;;;;;;;8.25;2.97;;;;;;;33.62;24.63;100435.06;5567602;32;33833;-72
2023/06/01 09:32:35;;;;;;;9.82;2.92;;;;;;;33.51;24.26;100437.28;5567704;32;34108;-72
2023/06/01 09:35:46;;;;;;;12.15;3.00;;;;;;;33.25;25.47;100433.66;5574636;31;34786;-70
2023/06/01 09:38:49;;;;;;;20.55;3.20;;;;;;;33.07;26.46;100432.72;5584365;31;34876;-70
2023/06/01 09:41:54;;;;;;;5.68;2.65;;;;;;;34.90;24.51;100430.78;5584440;31;33831;-68
2023/06/01 09:45:19;;;;;;;10.98;3.20;;;;;;;33.50;25.69;100432.91;5572227;31;33525;-70
2023/06/01 09:48:22;;;;;;;15.27;3.37;;;;;;;32.87;26.33;100430.53;5582152;31;33640;-72
2023/06/01 09:51:29;;;;;;;13.95;3.58;;;;;;;33.99;25.15;100426.25;5587305;31;34446;-70
2023/06/01 09:54:45;;;;;;;66.80;5.70;;;;;;;34.46;25.14;100431.97;5576086;31;32449;-70
2023/06/01 09:57:48;;;;;;;10.50;3.20;;;;;;;34.40;26.83;100423.06;5586980;31;33907;-71
2023/06/01 10:00:52;;;;;;;9.38;3.08;;;;;;;34.78;24.09;100433.37;5586156;31;33489;-71
2023/06/01 10:03:58;;;;;;;11.57;3.28;;;;;;;35.60;22.81;100429.34;5584895;31;33675;-73
2023/06/01 10:07:01;;;;;;;12.27;3.08;;;;;;;35.54;22.46;100430.69;5579205;31;33895;-71
2023/06/01 10:10:07;;;;;;;6.93;2.78;;;;;;;36.24;22.93;100424.41;5578576;31;33991;-71
2023/06/01 10:13:11;;;;;;;6.62;3.03;;;;;;;36.99;21.36;100419.59;5567898;31;33736;-72
2023/06/01 10:16:16;;;;;;;9.75;3.10;;;;;;;36.24;22.26;100418.06;5576062;31;33745;-75
2023/06/01 10:19:21;;;;;;;7.50;3.58;;;;;;;35.77;22.43;100420.19;5570746;31;33825;-71
2023/06/01 10:22:25;;;;;;;14.25;3.72;;;;;;;33.13;25.02;100403.97;5567175;32;34046;-70
2023/06/01 10:25:43;;;;;;;8.65;3.05;;;;;;;34.09;25.74;100403.09;5567379;32;33852;-72
2023/06/01 10:28:47;;;;;;;;;;;;;;;35.06;23.74;100404.25;5567594;32;34007;-70
2023/06/01 10:31:51;;;;;;;9.82;3.03;;;;;;;36.38;23.15;100394.53;5566198;32;34045;-70
2023/06/01 10:34:54;;;;;;;6.32;3.30;;;;;;;35.33;23.57;100383.75;5566293;32;33702;-70
2023/06/01 10:38:06;;;;;;;12.30;3.30;;;;;;;34.56;24.92;100384.78;5566471;32;34437;-72
2023/06/01 10:41:30;;;;;;;8.50;3.40;;;;;;;36.04;23.16;100381.81;5568504;31;34789;-70
2023/06/01 10:44:39;;;;;;;8.80;3.40;;;;;;;34.67;24.05;100380.56;5576361;31;34713;-70
2023/06/01 10:47:44;;;;;;;7.60;3.30;;;;;;;32.48;26.09;100379.03;5575111;31;33839;-71
2023/06/01 10:51:17;;;;;;;7.82;3.45;;;;;;;35.39;24.26;100374.12;5567112;32;33802;-71
2023/06/01 10:54:26;;;;;;;6.78;3.12;;;;;;;37.81;21.59;100373.28;5567417;32;33893;-71
2023/06/01 10:57:30;;;;;;;6.93;3.12;;;;;;;36.95;22.40;100368.87;5553551;31;33688;-71
2023/06/01 11:00:39;;;;;;;12.98;2.87;;;;;;;37.98;20.92;100364.66;5571250;31;35033;-73
2023/06/01 11:03:45;;;;;;;6.35;2.95;;;;;;;38.63;20.16;100366.13;5581921;31;33819;-72
2023/06/01 11:06:48;;;;;;;6.72;3.20;;;;;;;38.86;21.04;100363.56;5585466;31;34410;-71
2023/06/01 11:09:51;;;;;;;9.48;3.00;;;;;;;39.28;20.77;100357.44;5586915;31;33500;-72
2023/06/01 11:13:18;;;;;;;12.55;3.00;;;;;;;39.09;20.53;100364.56;5576943;31;32197;-71
2023/06/01 11:16:27;;;;;;;7.75;3.05;;;;;;;39.99;20.12;100354.31;5575003;31;33997;-70
2023/06/01 11:19:32;;;;;;;8.52;2.83;;;;;;;39.40;19.52;100349.84;5585504;31;33923;-72
2023/06/01 11:22:37;;;;;;;6.57;3.42;;;;;;;39.70;19.98;100343.75;5576316;31;33909;-71
2023/06/01 11:25:42;;;;;;;9.85;3.37;;;;;;;40.27;19.08;100343.00;5567685;31;34093;-70
2023/06/01 11:28:46;;;;;;;7.40;3.12;;;;;;;39.83;19.27;100339.69;5584098;31;34306;-71
2023/06/01 11:32:00;;;;;;;5.43;2.85;;;;;;;38.86;19.98;100329.47;5574183;31;34419;-72
2023/06/01 11:35:17;;;;;;;7.87;3.28;;;;;;;39.18;19.44;100321.91;5567463;31;33572;-71
2023/06/01 11:38:23;;;;;;;5.00;2.90;;;;;;;36.39;22.34;100323.50;5582203;31;33691;-71
2023/06/01 11:41:26;;;;;;;7.30;3.10;;;;;;;34.60;24.82;100316.88;5578402;31;34375;-71
2023/06/01 11:44:29;;;;;;;11.65;3.35;;;;;;;36.69;22.27;100313.12;5578272;31;33801;-71
2023/06/01 11:47:36;;;;;;;6.93;3.65;;;;;;;36.68;21.86;100309.53;5571988;31;33656;-72
2023/06/01 11:50:46;;;;;;;6.50;3.08;;;;;;;37.80;21.28;100302.41;5572094;31;34460;-72
2023/06/01 11:53:49;;;;;;;7.07;3.47;;;;;;;39.36;20.16;100304.53;5575154;31;33699;-73
2023/06/01 11:56:53;;;;;;;9.23;3.20;;;;;;;39.10;19.45;100299.56;5575778;31;35340;-73
2023/06/01 12:00:00;;;;;;;6.45;3.28;;;;;;;40.78;18.59;100299.03;5570975;31;33833;-71
2023/06/01 12:03:09;;;;;;;6.45;3.50;;;;;;;41.40;18.71;100294.00;5574488;31;34924;-72
2023/06/01 12:06:20;;;;;;;8.23;3.33;;;;;;;42.52;16.98;100299.34;5575322;31;33879;-73
2023/06/01 12:09:23;;;;;;;5.68;3.15;;;;;;;39.32;18.77;100289.78;5575596;31;33836;-71
2023/06/01 12:12:29;;;;;;;5.70;3.47;;;;;;;39.75;18.34;100280.41;5569691;31;33814;-71
2023/06/01 12:15:32;;;;;;;9.45;3.42;;;;;;;39.48;18.70;100281.41;5578367;31;34561;-67
2023/06/01 12:18:35;;;;;;;8.63;3.50;;;;;;;39.35;18.80;100269.62;5586200;31;33817;-72
2023/06/01 12:21:39;;;;;;;5.87;3.05;;;;;;;38.77;19.19;100267.81;5588325;31;33567;-71
2023/06/01 12:24:45;;;;;;;7.28;3.53;;;;;;;39.91;18.89;100272.78;5587696;31;33501;-70
2023/06/01 12:28:09;;;;;;;5.82;3.35;;;;;;;40.92;17.50;100265.84;5588023;31;33714;-70
2023/06/01 12:31:17;;;;;;;9.38;3.40;;;;;;;39.86;18.66;100256.44;5583475;31;35074;-70
2023/06/01 12:34:24;;;;;;;7.87;3.60;;;;;;;41.94;17.97;100260.09;5582280;31;33610;-71
2023/06/01 12:37:32;;;;;;;7.90;3.65;;;;;;;40.87;18.31;100240.31;5587432;31;33588;-71
2023/06/01 12:40:36;;;;;;;9.23;3.67;;;;;;;43.00;17.45;100247.09;5563924;31;33275;-70
2023/06/01 12:43:44;;;;;;;9.88;3.47;;;;;;;39.21;18.25;100237.97;5582586;31;33787;-70
2023/06/01 12:46:48;;;;;;;;;;;;;;;38.18;19.39;100238.19;5580327;31;34508;-68
2023/06/01 12:50:05;;;;;;;7.62;3.40;;;;;;;39.52;18.42;100232.28;5567436;31;35509;-68
2023/06/01 12:53:08;;;;;;;7.10;3.30;;;;;;;39.19;18.37;100220.84;5582849;31;33581;-72
2023/06/01 12:56:13;;;;;;;10.38;3.67;;;;;;;39.27;18.54;100228.16;5582522;31;33927;-71
2023/06/01 12:59:16;;;;;;;5.87;3.15;;;;;;;40.55;17.70;100212.81;5584181;31;33696;-75
2023/06/01 13:02:20;;;;;;;8.65;3.30;;;;;;;40.69;17.64;100212.25;5585530;31;33291;-74
2023/06/01 13:05:23;;;;;;;6.97;3.20;;;;;;;40.80;17.68;100216.00;5581622;31;34672;-71
2023/06/01 13:08:27;;;;;;;6.57;3.37;;;;;;;39.64;19.34;100212.72;5574802;31;35347;-73
2023/06/01 13:11:30;;;;;;;6.78;3.20;;;;;;;40.75;17.40;100205.19;5583631;31;33954;-73
2023/06/01 13:14:33;;;;;;;5.43;3.08;;;;;;;41.35;17.42;100205.22;5582128;31;34349;-71
2023/06/01 13:17:36;;;;;;;5.87;3.45;;;;;;;39.70;17.97;100200.13;5578291;31;33750;-70
2023/06/01 13:20:39;;;;;;;8.15;3.60;;;;;;;38.63;19.11;100198.97;5579549;31;33881;-70
2023/06/01 13:23:43;;;;;;;6.43;3.40;;;;;;;37.46;19.52;100198.59;5568786;31;34487;-70
2023/06/01 13:26:47;;;;;;;5.90;3.65;;;;;;;38.57;19.45;100198.44;5578303;31;33288;-71
2023/06/01 13:29:49;;;;;;;4.32;3.35;;;;;;;39.48;18.04;100203.66;5575548;31;33659;-72
2023/06/01 13:32:53;;;;;;;9.27;3.58;;;;;;;36.63;20.12;100184.56;5571286;31;34702;-70
2023/06/01 13:35:56;;;;;;;8.32;3.83;;;;;;;36.45;20.92;100187.53;5573933;31;33724;-71
2023/06/01 13:39:01;;;;;;;6.70;3.92;;;;;;;34.84;22.57;100184.81;5575429;31;34365;-71
2023/06/01 13:42:05;;;;;;;9.55;3.60;;;;;;;33.79;23.94;100170.16;5575579;31;33633;-70
2023/06/01 13:45:08;;;;;;;4.57;3.47;;;;;;;33.79;23.32;100167.41;5578101;31;33909;-71
2023/06/01 13:48:11;;;;;;;15.73;4.00;;;;;;;35.76;21.79;100157.16;5579774;31;33903;-71
2023/06/01 13:51:18;;;;;;;8.95;3.60;;;;;;;38.55;20.04;100163.91;5573265;31;34623;-71
2023/06/01 13:54:22;;;;;;;6.68;3.70;;;;;;;37.92;20.04;100154.75;5586918;31;34215;-71
2023/06/01 13:57:25;;;;;;;9.68;3.60;;;;;;;38.11;19.92;100150.16;5582780;31;34605;-71
2023/06/01 14:00:28;;;;;;;8.10;3.80;;;;;;;38.99;19.71;100150.66;5580667;31;34246;-70
2023/06/01 14:03:31;;;;;;;7.43;3.70;;;;;;;39.07;19.07;100149.66;5580031;31;33826;-70
2023/06/01 14:06:35;;;;;;;10.38;3.78;;;;;;;34.72;22.94;100145.31;5583735;31;33684;-70
2023/06/01 14:09:38;;;;;;;5.30;3.45;;;;;;;30.87;27.23;100139.50;5585469;31;33956;-70
2023/06/01 14:12:41;;;;;;;9.55;3.60;;;;;;;33.04;26.56;100131.00;5585704;31;34159;-70